sensor_id;sensor_type;location;lat;lon;timestamp;temperature;humidity
61841;DHT22;47773;53.174;6.614;2023-06-22T00:01:55;19.00;99.90
61841;DHT22;47773;53.174;6.614;2023-06-22T00:04:21;18.90;99.90
61841;DHT22;47773;53.174;6.614;2023-06-22T00:06:46;18.90;99.90
61841;DHT22;47773;53.174;6.614;2023-06-22T00:09:12;18.90;99.90
61841;DHT22;47773;53.174;6.614;2023-06-22T00:11:37;18.90;99.90
61841;DHT22;47773;53.174;6.614;2023-06-22T00:14:04;18.80;99.90
61841;DHT22;47773;53.174;6.614;2023-06-22T00:16:31;18.80;99.90
61841;DHT22;47773;53.174;6.614;2023-06-22T00:18:57;18.80;99.90
61841;DHT22;47773;53.174;6.614;2023-06-22T00:21:28;18.80;99.90
61841;DHT22;47773;53.174;6.614;2023-06-22T00:23:54;18.80;99.90
61841;DHT22;47773;53.174;6.614;2023-06-22T00:26:20;18.80;99.90
61841;DHT22;47773;53.174;6.614;2023-06-22T00:28:46;18.70;99.90
61841;DHT22;47773;53.174;6.614;2023-06-22T00:31:12;18.70;99.90
61841;DHT22;47773;53.174;6.614;2023-06-22T00:33:38;18.70;99.90
61841;DHT22;47773;53.174;6.614;2023-06-22T00:36:04;18.60;99.90
61841;DHT22;47773;53.174;6.614;2023-06-22T00:38:30;18.60;99.90
61841;DHT22;47773;53.174;6.614;2023-06-22T00:40:55;18.60;99.90
61841;DHT22;47773;53.174;6.614;2023-06-22T00:43:21;18.50;99.90
61841;DHT22;47773;53.174;6.614;2023-06-22T00:45:47;18.50;99.90
61841;DHT22;47773;53.174;6.614;2023-06-22T00:48:14;18.50;99.90
61841;DHT22;47773;53.174;6.614;2023-06-22T00:50:40;18.50;99.90
61841;DHT22;47773;53.174;6.614;2023-06-22T00:53:07;18.50;99.90
61841;DHT22;47773;53.174;6.614;2023-06-22T00:55:44;18.40;99.90
61841;DHT22;47773;53.174;6.614;2023-06-22T00:58:11;18.40;99.90
61841;DHT22;47773;53.174;6.614;2023-06-22T01:00:40;18.40;99.90
61841;DHT22;47773;53.174;6.614;2023-06-22T01:03:07;18.30;99.90
61841;DHT22;47773;53.174;6.614;2023-06-22T01:05:36;18.30;99.90
61841;DHT22;47773;53.174;6.614;2023-06-22T01:08:37;18.30;99.90
61841;DHT22;47773;53.174;6.614;2023-06-22T01:11:10;18.30;99.90
61841;DHT22;47773;53.174;6.614;2023-06-22T01:16:30;18.30;99.90
61841;DHT22;47773;53.174;6.614;2023-06-22T01:19:05;18.30;99.90
61841;DHT22;47773;53.174;6.614;2023-06-22T01:21:35;18.30;99.90
61841;DHT22;47773;53.174;6.614;2023-06-22T01:24:23;18.20;99.90
61841;DHT22;47773;53.174;6.614;2023-06-22T01:29:52;18.20;99.90
61841;DHT22;47773;53.174;6.614;2023-06-22T01:32:21;18.20;99.90
61841;DHT22;47773;53.174;6.614;2023-06-22T01:34:47;18.10;99.90
61841;DHT22;47773;53.174;6.614;2023-06-22T01:37:14;18.10;99.90
61841;DHT22;47773;53.174;6.614;2023-06-22T01:39:41;18.10;99.90
61841;DHT22;47773;53.174;6.614;2023-06-22T01:42:06;18.10;99.90
61841;DHT22;47773;53.174;6.614;2023-06-22T01:44:32;18.00;99.90
61841;DHT22;47773;53.174;6.614;2023-06-22T01:46:59;18.00;99.90
61841;DHT22;47773;53.174;6.614;2023-06-22T01:49:25;18.00;99.90
61841;DHT22;47773;53.174;6.614;2023-06-22T01:51:51;18.00;99.90
61841;DHT22;47773;53.174;6.614;2023-06-22T01:54:17;17.90;99.90
61841;DHT22;47773;53.174;6.614;2023-06-22T01:56:42;17.90;99.90
61841;DHT22;47773;53.174;6.614;2023-06-22T01:59:20;17.90;99.90
61841;DHT22;47773;53.174;6.614;2023-06-22T02:02:09;17.80;99.90
61841;DHT22;47773;53.174;6.614;2023-06-22T02:04:48;17.80;99.90
61841;DHT22;47773;53.174;6.614;2023-06-22T02:07:17;17.80;99.90
61841;DHT22;47773;53.174;6.614;2023-06-22T02:09:45;17.80;99.90
61841;DHT22;47773;53.174;6.614;2023-06-22T02:12:12;17.80;99.90
61841;DHT22;47773;53.174;6.614;2023-06-22T02:14:39;17.80;99.90
61841;DHT22;47773;53.174;6.614;2023-06-22T02:17:05;17.80;99.90
61841;DHT22;47773;53.174;6.614;2023-06-22T02:19:36;17.80;99.90
61841;DHT22;47773;53.174;6.614;2023-06-22T02:22:03;17.70;99.90
61841;DHT22;47773;53.174;6.614;2023-06-22T02:24:29;17.70;99.90
61841;DHT22;47773;53.174;6.614;2023-06-22T02:27:01;17.70;99.90
61841;DHT22;47773;53.174;6.614;2023-06-22T02:29:27;17.70;99.90
61841;DHT22;47773;53.174;6.614;2023-06-22T02:31:53;17.60;99.90
61841;DHT22;47773;53.174;6.614;2023-06-22T02:34:19;17.60;99.90
61841;DHT22;47773;53.174;6.614;2023-06-22T02:36:46;17.60;99.90
61841;DHT22;47773;53.174;6.614;2023-06-22T02:39:24;17.60;99.90
61841;DHT22;47773;53.174;6.614;2023-06-22T02:41:50;17.60;99.90
61841;DHT22;47773;53.174;6.614;2023-06-22T02:44:16;17.60;99.90
61841;DHT22;47773;53.174;6.614;2023-06-22T02:46:43;17.60;99.90
61841;DHT22;47773;53.174;6.614;2023-06-22T02:49:10;17.60;99.90
61841;DHT22;47773;53.174;6.614;2023-06-22T02:51:37;17.60;99.90
61841;DHT22;47773;53.174;6.614;2023-06-22T02:54:08;17.60;99.90
61841;DHT22;47773;53.174;6.614;2023-06-22T02:56:33;17.50;99.90
61841;DHT22;47773;53.174;6.614;2023-06-22T02:58:59;17.50;99.90
61841;DHT22;47773;53.174;6.614;2023-06-22T03:01:29;17.50;99.90
61841;DHT22;47773;53.174;6.614;2023-06-22T03:03:59;17.50;99.90
61841;DHT22;47773;53.174;6.614;2023-06-22T03:06:24;17.50;99.90
61841;DHT22;47773;53.174;6.614;2023-06-22T03:08:59;17.50;99.90
61841;DHT22;47773;53.174;6.614;2023-06-22T03:11:25;17.50;99.90
61841;DHT22;47773;53.174;6.614;2023-06-22T03:13:51;17.50;99.90
61841;DHT22;47773;53.174;6.614;2023-06-22T03:16:17;17.50;99.90
61841;DHT22;47773;53.174;6.614;2023-06-22T03:18:43;17.40;99.90
61841;DHT22;47773;53.174;6.614;2023-06-22T03:21:09;17.40;99.90
61841;DHT22;47773;53.174;6.614;2023-06-22T03:23:35;17.40;99.90
61841;DHT22;47773;53.174;6.614;2023-06-22T03:26:01;17.40;99.90
61841;DHT22;47773;53.174;6.614;2023-06-22T03:28:27;17.40;99.90
61841;DHT22;47773;53.174;6.614;2023-06-22T03:30:52;17.40;99.90
61841;DHT22;47773;53.174;6.614;2023-06-22T03:33:18;17.40;99.90
61841;DHT22;47773;53.174;6.614;2023-06-22T03:35:44;17.40;99.90
61841;DHT22;47773;53.174;6.614;2023-06-22T03:38:09;17.40;99.90
61841;DHT22;47773;53.174;6.614;2023-06-22T03:40:35;17.40;99.90
61841;DHT22;47773;53.174;6.614;2023-06-22T03:43:01;17.40;99.90
61841;DHT22;47773;53.174;6.614;2023-06-22T03:45:26;17.40;99.90
61841;DHT22;47773;53.174;6.614;2023-06-22T03:47:52;17.40;99.90
61841;DHT22;47773;53.174;6.614;2023-06-22T03:50:18;17.40;99.90
61841;DHT22;47773;53.174;6.614;2023-06-22T03:52:46;17.40;99.90
61841;DHT22;47773;53.174;6.614;2023-06-22T03:55:12;17.40;99.90
61841;DHT22;47773;53.174;6.614;2023-06-22T03:57:37;17.30;99.90
61841;DHT22;47773;53.174;6.614;2023-06-22T04:00:03;17.30;99.90
61841;DHT22;47773;53.174;6.614;2023-06-22T04:02:33;17.20;99.90
61841;DHT22;47773;53.174;6.614;2023-06-22T04:04:59;17.20;99.90
61841;DHT22;47773;53.174;6.614;2023-06-22T04:07:24;17.20;99.90
61841;DHT22;47773;53.174;6.614;2023-06-22T04:09:50;17.20;99.90
61841;DHT22;47773;53.174;6.614;2023-06-22T04:12:16;17.20;99.90
61841;DHT22;47773;53.174;6.614;2023-06-22T04:14:41;17.20;99.90
61841;DHT22;47773;53.174;6.614;2023-06-22T04:17:07;17.20;99.90
61841;DHT22;47773;53.174;6.614;2023-06-22T04:19:33;17.30;99.90
61841;DHT22;47773;53.174;6.614;2023-06-22T04:21:58;17.40;99.90
61841;DHT22;47773;53.174;6.614;2023-06-22T04:24:24;17.40;99.90
61841;DHT22;47773;53.174;6.614;2023-06-22T04:26:50;17.50;99.90
61841;DHT22;47773;53.174;6.614;2023-06-22T04:29:19;17.50;99.90
61841;DHT22;47773;53.174;6.614;2023-06-22T04:31:44;17.60;99.90
61841;DHT22;47773;53.174;6.614;2023-06-22T04:34:10;17.60;99.90
61841;DHT22;47773;53.174;6.614;2023-06-22T04:36:37;17.70;99.90
61841;DHT22;47773;53.174;6.614;2023-06-22T04:39:05;17.70;99.90
61841;DHT22;47773;53.174;6.614;2023-06-22T04:41:31;17.70;99.90
61841;DHT22;47773;53.174;6.614;2023-06-22T04:44:08;17.80;99.90
61841;DHT22;47773;53.174;6.614;2023-06-22T04:46:34;17.90;99.90
61841;DHT22;47773;53.174;6.614;2023-06-22T04:49:09;17.90;99.90
61841;DHT22;47773;53.174;6.614;2023-06-22T04:51:42;17.90;99.90
61841;DHT22;47773;53.174;6.614;2023-06-22T04:54:09;17.90;99.90
61841;DHT22;47773;53.174;6.614;2023-06-22T04:56:35;17.90;99.90
61841;DHT22;47773;53.174;6.614;2023-06-22T04:59:01;17.90;99.90
61841;DHT22;47773;53.174;6.614;2023-06-22T05:01:28;17.80;99.90
61841;DHT22;47773;53.174;6.614;2023-06-22T05:03:56;17.80;99.90
61841;DHT22;47773;53.174;6.614;2023-06-22T05:06:24;17.80;99.90
61841;DHT22;47773;53.174;6.614;2023-06-22T05:08:57;17.80;99.90
61841;DHT22;47773;53.174;6.614;2023-06-22T05:11:28;17.90;99.90
61841;DHT22;47773;53.174;6.614;2023-06-22T05:13:54;17.90;99.90
61841;DHT22;47773;53.174;6.614;2023-06-22T05:16:20;18.00;99.90
61841;DHT22;47773;53.174;6.614;2023-06-22T05:18:53;18.10;99.90
61841;DHT22;47773;53.174;6.614;2023-06-22T05:21:26;18.00;99.90
61841;DHT22;47773;53.174;6.614;2023-06-22T05:23:53;18.10;99.90
61841;DHT22;47773;53.174;6.614;2023-06-22T05:26:20;18.20;99.90
61841;DHT22;47773;53.174;6.614;2023-06-22T05:28:46;18.20;99.90
61841;DHT22;47773;53.174;6.614;2023-06-22T05:31:15;18.20;99.90
61841;DHT22;47773;53.174;6.614;2023-06-22T05:33:42;18.30;99.90
61841;DHT22;47773;53.174;6.614;2023-06-22T05:36:08;18.30;99.90
61841;DHT22;47773;53.174;6.614;2023-06-22T05:38:35;18.30;99.90
61841;DHT22;47773;53.174;6.614;2023-06-22T05:41:01;18.40;99.90
61841;DHT22;47773;53.174;6.614;2023-06-22T05:43:27;18.40;99.90
61841;DHT22;47773;53.174;6.614;2023-06-22T05:45:53;18.50;99.90
61841;DHT22;47773;53.174;6.614;2023-06-22T05:48:18;18.60;99.90
61841;DHT22;47773;53.174;6.614;2023-06-22T05:50:44;18.70;99.90
61841;DHT22;47773;53.174;6.614;2023-06-22T05:53:09;18.70;99.90
61841;DHT22;47773;53.174;6.614;2023-06-22T05:55:35;18.90;99.90
61841;DHT22;47773;53.174;6.614;2023-06-22T05:58:01;18.90;99.90
61841;DHT22;47773;53.174;6.614;2023-06-22T06:00:29;19.00;99.90
61841;DHT22;47773;53.174;6.614;2023-06-22T06:02:54;19.00;99.90
61841;DHT22;47773;53.174;6.614;2023-06-22T06:05:20;19.10;99.90
61841;DHT22;47773;53.174;6.614;2023-06-22T06:07:46;19.20;99.90
61841;DHT22;47773;53.174;6.614;2023-06-22T06:10:12;19.20;99.90
61841;DHT22;47773;53.174;6.614;2023-06-22T06:12:38;19.30;99.90
61841;DHT22;47773;53.174;6.614;2023-06-22T06:15:04;19.30;99.90
61841;DHT22;47773;53.174;6.614;2023-06-22T06:17:30;19.40;99.90
61841;DHT22;47773;53.174;6.614;2023-06-22T06:19:56;19.40;99.90
61841;DHT22;47773;53.174;6.614;2023-06-22T06:22:22;19.60;99.90
61841;DHT22;47773;53.174;6.614;2023-06-22T06:24:49;19.60;99.90
61841;DHT22;47773;53.174;6.614;2023-06-22T06:27:15;19.80;99.90
61841;DHT22;47773;53.174;6.614;2023-06-22T06:29:43;19.80;99.90
61841;DHT22;47773;53.174;6.614;2023-06-22T06:32:11;19.80;99.90
61841;DHT22;47773;53.174;6.614;2023-06-22T06:34:37;19.90;99.90
61841;DHT22;47773;53.174;6.614;2023-06-22T06:37:03;20.00;99.90
61841;DHT22;47773;53.174;6.614;2023-06-22T06:39:29;20.20;99.90
61841;DHT22;47773;53.174;6.614;2023-06-22T06:41:54;20.30;99.90
61841;DHT22;47773;53.174;6.614;2023-06-22T06:44:20;20.30;99.90
61841;DHT22;47773;53.174;6.614;2023-06-22T06:46:46;20.30;99.90
61841;DHT22;47773;53.174;6.614;2023-06-22T06:49:12;20.40;99.90
61841;DHT22;47773;53.174;6.614;2023-06-22T06:51:38;20.40;99.90
61841;DHT22;47773;53.174;6.614;2023-06-22T06:54:04;20.50;99.90
61841;DHT22;47773;53.174;6.614;2023-06-22T06:56:30;20.70;99.90
61841;DHT22;47773;53.174;6.614;2023-06-22T06:58:55;20.70;99.90
61841;DHT22;47773;53.174;6.614;2023-06-22T07:01:21;20.80;99.90
61841;DHT22;47773;53.174;6.614;2023-06-22T07:03:47;20.90;99.90
61841;DHT22;47773;53.174;6.614;2023-06-22T07:06:13;20.90;99.90
61841;DHT22;47773;53.174;6.614;2023-06-22T07:08:39;20.90;99.90
61841;DHT22;47773;53.174;6.614;2023-06-22T07:11:05;20.90;99.90
61841;DHT22;47773;53.174;6.614;2023-06-22T07:13:31;21.10;99.90
61841;DHT22;47773;53.174;6.614;2023-06-22T07:15:57;21.20;99.90
61841;DHT22;47773;53.174;6.614;2023-06-22T07:18:23;21.20;99.90
61841;DHT22;47773;53.174;6.614;2023-06-22T07:20:49;21.30;99.90
61841;DHT22;47773;53.174;6.614;2023-06-22T07:23:15;21.50;99.90
61841;DHT22;47773;53.174;6.614;2023-06-22T07:25:41;21.60;99.90
61841;DHT22;47773;53.174;6.614;2023-06-22T07:28:07;21.70;99.90
61841;DHT22;47773;53.174;6.614;2023-06-22T07:30:33;21.80;99.90
61841;DHT22;47773;53.174;6.614;2023-06-22T07:32:59;21.80;99.90
61841;DHT22;47773;53.174;6.614;2023-06-22T07:35:32;21.90;99.90
61841;DHT22;47773;53.174;6.614;2023-06-22T07:37:57;22.00;99.90
61841;DHT22;47773;53.174;6.614;2023-06-22T07:40:23;22.20;99.90
61841;DHT22;47773;53.174;6.614;2023-06-22T07:42:49;22.30;99.90
61841;DHT22;47773;53.174;6.614;2023-06-22T07:45:17;22.40;99.90
61841;DHT22;47773;53.174;6.614;2023-06-22T07:47:43;22.60;99.90
61841;DHT22;47773;53.174;6.614;2023-06-22T07:50:09;22.70;99.90
61841;DHT22;47773;53.174;6.614;2023-06-22T07:52:35;22.80;99.90
61841;DHT22;47773;53.174;6.614;2023-06-22T07:55:01;22.80;99.90
61841;DHT22;47773;53.174;6.614;2023-06-22T07:57:28;22.90;99.90
61841;DHT22;47773;53.174;6.614;2023-06-22T07:59:59;22.90;99.90
61841;DHT22;47773;53.174;6.614;2023-06-22T08:02:26;23.00;99.90
61841;DHT22;47773;53.174;6.614;2023-06-22T08:04:51;23.10;99.90
61841;DHT22;47773;53.174;6.614;2023-06-22T08:07:17;23.20;99.90
61841;DHT22;47773;53.174;6.614;2023-06-22T08:09:48;23.30;99.90
61841;DHT22;47773;53.174;6.614;2023-06-22T08:12:14;23.50;99.90
61841;DHT22;47773;53.174;6.614;2023-06-22T08:14:42;23.60;99.90
61841;DHT22;47773;53.174;6.614;2023-06-22T08:17:09;23.80;99.90
61841;DHT22;47773;53.174;6.614;2023-06-22T08:19:37;23.90;99.90
61841;DHT22;47773;53.174;6.614;2023-06-22T08:22:03;24.00;99.90
61841;DHT22;47773;53.174;6.614;2023-06-22T08:24:28;24.00;99.90
61841;DHT22;47773;53.174;6.614;2023-06-22T08:26:56;24.20;99.90
61841;DHT22;47773;53.174;6.614;2023-06-22T08:29:21;24.30;99.90
61841;DHT22;47773;53.174;6.614;2023-06-22T08:31:47;24.40;99.90
61841;DHT22;47773;53.174;6.614;2023-06-22T08:34:13;24.60;99.90
61841;DHT22;47773;53.174;6.614;2023-06-22T08:36:38;24.80;99.90
61841;DHT22;47773;53.174;6.614;2023-06-22T08:39:07;25.10;99.90
61841;DHT22;47773;53.174;6.614;2023-06-22T08:41:33;25.20;99.90
61841;DHT22;47773;53.174;6.614;2023-06-22T08:43:59;25.20;99.90
61841;DHT22;47773;53.174;6.614;2023-06-22T08:46:25;25.40;99.90
61841;DHT22;47773;53.174;6.614;2023-06-22T08:48:56;25.50;99.90
61841;DHT22;47773;53.174;6.614;2023-06-22T08:51:23;25.80;99.90
61841;DHT22;47773;53.174;6.614;2023-06-22T08:53:49;25.80;99.90
61841;DHT22;47773;53.174;6.614;2023-06-22T08:56:14;25.70;99.90
61841;DHT22;47773;53.174;6.614;2023-06-22T08:58:40;25.90;99.90
61841;DHT22;47773;53.174;6.614;2023-06-22T09:01:06;26.00;99.90
61841;DHT22;47773;53.174;6.614;2023-06-22T09:03:32;26.10;99.90
61841;DHT22;47773;53.174;6.614;2023-06-22T09:05:58;26.40;99.90
61841;DHT22;47773;53.174;6.614;2023-06-22T09:08:24;26.40;99.90
61841;DHT22;47773;53.174;6.614;2023-06-22T09:10:50;26.50;99.90
61841;DHT22;47773;53.174;6.614;2023-06-22T09:13:15;26.50;99.90
61841;DHT22;47773;53.174;6.614;2023-06-22T09:15:41;26.70;99.90
61841;DHT22;47773;53.174;6.614;2023-06-22T09:18:10;26.80;99.90
61841;DHT22;47773;53.174;6.614;2023-06-22T09:20:36;26.70;99.90
61841;DHT22;47773;53.174;6.614;2023-06-22T09:23:02;27.00;99.90
61841;DHT22;47773;53.174;6.614;2023-06-22T09:25:27;27.10;99.90
61841;DHT22;47773;53.174;6.614;2023-06-22T09:27:54;27.10;99.90
61841;DHT22;47773;53.174;6.614;2023-06-22T09:30:20;27.10;99.90
61841;DHT22;47773;53.174;6.614;2023-06-22T09:32:46;27.20;99.90
61841;DHT22;47773;53.174;6.614;2023-06-22T09:35:11;27.00;99.80
61841;DHT22;47773;53.174;6.614;2023-06-22T09:37:39;27.10;99.90
61841;DHT22;47773;53.174;6.614;2023-06-22T09:40:06;27.20;99.10
61841;DHT22;47773;53.174;6.614;2023-06-22T09:42:38;27.20;98.50
61841;DHT22;47773;53.174;6.614;2023-06-22T09:45:04;27.20;97.90
61841;DHT22;47773;53.174;6.614;2023-06-22T09:47:30;27.00;98.50
61841;DHT22;47773;53.174;6.614;2023-06-22T09:49:56;26.90;98.60
61841;DHT22;47773;53.174;6.614;2023-06-22T09:52:24;26.90;98.70
61841;DHT22;47773;53.174;6.614;2023-06-22T09:54:50;26.60;98.90
61841;DHT22;47773;53.174;6.614;2023-06-22T09:57:15;26.40;99.00
61841;DHT22;47773;53.174;6.614;2023-06-22T09:59:41;26.20;99.50
61841;DHT22;47773;53.174;6.614;2023-06-22T10:02:07;26.20;99.30
61841;DHT22;47773;53.174;6.614;2023-06-22T10:04:36;26.60;99.10
61841;DHT22;47773;53.174;6.614;2023-06-22T10:07:03;27.00;98.90
61841;DHT22;47773;53.174;6.614;2023-06-22T10:09:28;27.30;97.90
61841;DHT22;47773;53.174;6.614;2023-06-22T10:11:54;27.50;97.40
61841;DHT22;47773;53.174;6.614;2023-06-22T10:14:20;27.70;96.70
61841;DHT22;47773;53.174;6.614;2023-06-22T10:16:46;27.80;96.20
61841;DHT22;47773;53.174;6.614;2023-06-22T10:19:11;27.90;95.60
61841;DHT22;47773;53.174;6.614;2023-06-22T10:21:37;27.70;95.20
61841;DHT22;47773;53.174;6.614;2023-06-22T10:24:03;27.80;95.00
61841;DHT22;47773;53.174;6.614;2023-06-22T10:26:35;28.00;94.80
61841;DHT22;47773;53.174;6.614;2023-06-22T10:29:02;28.20;94.10
61841;DHT22;47773;53.174;6.614;2023-06-22T10:31:28;28.10;93.50
61841;DHT22;47773;53.174;6.614;2023-06-22T10:33:54;28.00;93.60
61841;DHT22;47773;53.174;6.614;2023-06-22T10:36:23;28.30;93.20
61841;DHT22;47773;53.174;6.614;2023-06-22T10:38:49;28.20;92.60
61841;DHT22;47773;53.174;6.614;2023-06-22T10:41:15;28.10;92.40
61841;DHT22;47773;53.174;6.614;2023-06-22T10:43:41;28.10;92.60
61841;DHT22;47773;53.174;6.614;2023-06-22T10:46:07;28.40;92.80
61841;DHT22;47773;53.174;6.614;2023-06-22T10:48:33;28.50;92.20
61841;DHT22;47773;53.174;6.614;2023-06-22T10:50:59;28.50;92.00
61841;DHT22;47773;53.174;6.614;2023-06-22T10:53:25;28.70;91.90
61841;DHT22;47773;53.174;6.614;2023-06-22T10:55:50;28.80;91.60
61841;DHT22;47773;53.174;6.614;2023-06-22T10:58:18;28.70;90.90
61841;DHT22;47773;53.174;6.614;2023-06-22T11:00:44;28.80;90.70
61841;DHT22;47773;53.174;6.614;2023-06-22T11:03:10;28.70;91.00
61841;DHT22;47773;53.174;6.614;2023-06-22T11:05:36;28.30;90.70
61841;DHT22;47773;53.174;6.614;2023-06-22T11:08:01;28.30;90.60
61841;DHT22;47773;53.174;6.614;2023-06-22T11:10:27;28.30;90.40
61841;DHT22;47773;53.174;6.614;2023-06-22T11:12:53;28.10;90.80
61841;DHT22;47773;53.174;6.614;2023-06-22T11:15:19;28.10;90.70
61841;DHT22;47773;53.174;6.614;2023-06-22T11:17:44;28.30;90.30
61841;DHT22;47773;53.174;6.614;2023-06-22T11:20:11;28.40;89.10
61841;DHT22;47773;53.174;6.614;2023-06-22T11:22:40;28.40;89.40
61841;DHT22;47773;53.174;6.614;2023-06-22T11:25:07;28.30;87.80
61841;DHT22;47773;53.174;6.614;2023-06-22T11:27:33;28.30;88.60
61841;DHT22;47773;53.174;6.614;2023-06-22T11:29:58;28.30;87.90
61841;DHT22;47773;53.174;6.614;2023-06-22T11:32:24;28.10;87.30
61841;DHT22;47773;53.174;6.614;2023-06-22T11:34:50;28.00;87.90
61841;DHT22;47773;53.174;6.614;2023-06-22T11:37:16;28.10;88.30
61841;DHT22;47773;53.174;6.614;2023-06-22T11:39:42;27.90;87.80
61841;DHT22;47773;53.174;6.614;2023-06-22T11:42:08;27.70;88.70
61841;DHT22;47773;53.174;6.614;2023-06-22T11:44:34;27.70;89.30
61841;DHT22;47773;53.174;6.614;2023-06-22T11:47:00;27.70;90.00
61841;DHT22;47773;53.174;6.614;2023-06-22T11:49:27;27.60;90.10
61841;DHT22;47773;53.174;6.614;2023-06-22T11:51:53;27.50;90.10
61841;DHT22;47773;53.174;6.614;2023-06-22T11:54:18;27.50;90.70
61841;DHT22;47773;53.174;6.614;2023-06-22T11:56:44;27.30;90.80
61841;DHT22;47773;53.174;6.614;2023-06-22T11:59:10;27.10;90.80
61841;DHT22;47773;53.174;6.614;2023-06-22T12:01:36;27.00;91.00
61841;DHT22;47773;53.174;6.614;2023-06-22T12:04:02;26.90;91.40
61841;DHT22;47773;53.174;6.614;2023-06-22T12:06:35;26.80;91.90
61841;DHT22;47773;53.174;6.614;2023-06-22T12:09:03;26.80;92.20
61841;DHT22;47773;53.174;6.614;2023-06-22T12:11:30;26.70;92.40
61841;DHT22;47773;53.174;6.614;2023-06-22T12:13:56;26.70;92.70
61841;DHT22;47773;53.174;6.614;2023-06-22T12:16:21;26.60;93.20
61841;DHT22;47773;53.174;6.614;2023-06-22T12:18:48;26.50;93.20
61841;DHT22;47773;53.174;6.614;2023-06-22T12:21:13;26.40;93.50
61841;DHT22;47773;53.174;6.614;2023-06-22T12:23:39;26.40;93.60
61841;DHT22;47773;53.174;6.614;2023-06-22T12:26:05;26.30;93.80
61841;DHT22;47773;53.174;6.614;2023-06-22T12:28:30;26.20;94.20
61841;DHT22;47773;53.174;6.614;2023-06-22T12:30:56;26.20;94.20
61841;DHT22;47773;53.174;6.614;2023-06-22T12:33:21;26.10;94.40
61841;DHT22;47773;53.174;6.614;2023-06-22T12:35:47;26.00;94.40
61841;DHT22;47773;53.174;6.614;2023-06-22T12:38:14;26.00;94.90
61841;DHT22;47773;53.174;6.614;2023-06-22T12:40:40;26.00;95.00
61841;DHT22;47773;53.174;6.614;2023-06-22T12:43:06;25.90;95.00
61841;DHT22;47773;53.174;6.614;2023-06-22T12:45:33;25.90;95.50
61841;DHT22;47773;53.174;6.614;2023-06-22T12:48:00;25.80;95.60
61841;DHT22;47773;53.174;6.614;2023-06-22T12:50:26;25.70;95.70
61841;DHT22;47773;53.174;6.614;2023-06-22T12:52:52;25.70;96.00
61841;DHT22;47773;53.174;6.614;2023-06-22T12:55:18;25.60;96.30
61841;DHT22;47773;53.174;6.614;2023-06-22T12:57:43;25.50;96.50
61841;DHT22;47773;53.174;6.614;2023-06-22T13:00:09;25.50;96.90
61841;DHT22;47773;53.174;6.614;2023-06-22T13:02:36;25.50;97.40
61841;DHT22;47773;53.174;6.614;2023-06-22T13:05:02;25.50;97.70
61841;DHT22;47773;53.174;6.614;2023-06-22T13:07:30;25.40;97.90
61841;DHT22;47773;53.174;6.614;2023-06-22T13:09:56;25.40;98.30
61841;DHT22;47773;53.174;6.614;2023-06-22T13:12:22;25.40;98.40
61841;DHT22;47773;53.174;6.614;2023-06-22T13:14:48;25.40;98.80
61841;DHT22;47773;53.174;6.614;2023-06-22T13:17:13;25.40;99.00
61841;DHT22;47773;53.174;6.614;2023-06-22T13:19:39;25.40;98.70
61841;DHT22;47773;53.174;6.614;2023-06-22T13:22:09;25.30;98.50
61841;DHT22;47773;53.174;6.614;2023-06-22T13:24:50;25.20;98.70
61841;DHT22;47773;53.174;6.614;2023-06-22T13:27:15;25.10;99.10
61841;DHT22;47773;53.174;6.614;2023-06-22T13:29:41;25.10;99.20
61841;DHT22;47773;53.174;6.614;2023-06-22T13:32:07;25.00;99.10
61841;DHT22;47773;53.174;6.614;2023-06-22T13:34:33;24.90;98.90
61841;DHT22;47773;53.174;6.614;2023-06-22T13:36:58;24.80;99.20
61841;DHT22;47773;53.174;6.614;2023-06-22T13:39:24;24.70;99.40
61841;DHT22;47773;53.174;6.614;2023-06-22T13:41:50;24.60;99.30
61841;DHT22;47773;53.174;6.614;2023-06-22T13:44:15;24.60;99.50
61841;DHT22;47773;53.174;6.614;2023-06-22T13:46:41;24.50;99.70
61841;DHT22;47773;53.174;6.614;2023-06-22T13:49:07;24.40;99.90
61841;DHT22;47773;53.174;6.614;2023-06-22T13:51:32;24.40;99.90
61841;DHT22;47773;53.174;6.614;2023-06-22T13:53:58;24.30;99.90
61841;DHT22;47773;53.174;6.614;2023-06-22T13:56:24;24.30;99.90
61841;DHT22;47773;53.174;6.614;2023-06-22T13:58:49;24.20;99.90
61841;DHT22;47773;53.174;6.614;2023-06-22T14:01:15;24.20;99.90
61841;DHT22;47773;53.174;6.614;2023-06-22T14:03:41;24.20;99.90
61841;DHT22;47773;53.174;6.614;2023-06-22T14:06:06;24.10;99.90
61841;DHT22;47773;53.174;6.614;2023-06-22T14:08:32;24.10;99.90
61841;DHT22;47773;53.174;6.614;2023-06-22T14:10:58;24.00;99.90
61841;DHT22;47773;53.174;6.614;2023-06-22T14:13:23;24.00;99.90
61841;DHT22;47773;53.174;6.614;2023-06-22T14:15:49;23.80;99.90
61841;DHT22;47773;53.174;6.614;2023-06-22T14:18:17;23.70;99.90
61841;DHT22;47773;53.174;6.614;2023-06-22T14:20:43;23.70;99.90
61841;DHT22;47773;53.174;6.614;2023-06-22T14:23:08;23.60;99.90
61841;DHT22;47773;53.174;6.614;2023-06-22T14:25:34;23.60;99.90
61841;DHT22;47773;53.174;6.614;2023-06-22T14:27:59;23.50;99.90
61841;DHT22;47773;53.174;6.614;2023-06-22T14:30:25;23.50;99.90
61841;DHT22;47773;53.174;6.614;2023-06-22T14:32:51;23.50;99.90
61841;DHT22;47773;53.174;6.614;2023-06-22T14:35:16;23.50;99.90
61841;DHT22;47773;53.174;6.614;2023-06-22T14:37:42;23.40;99.90
61841;DHT22;47773;53.174;6.614;2023-06-22T14:40:08;23.40;99.90
61841;DHT22;47773;53.174;6.614;2023-06-22T14:42:34;23.30;99.90
61841;DHT22;47773;53.174;6.614;2023-06-22T14:44:59;23.30;99.90
61841;DHT22;47773;53.174;6.614;2023-06-22T14:47:25;23.20;99.90
61841;DHT22;47773;53.174;6.614;2023-06-22T14:49:51;23.20;99.90
61841;DHT22;47773;53.174;6.614;2023-06-22T14:52:16;23.20;99.90
61841;DHT22;47773;53.174;6.614;2023-06-22T14:54:42;23.20;99.90
61841;DHT22;47773;53.174;6.614;2023-06-22T14:57:08;23.10;99.90
61841;DHT22;47773;53.174;6.614;2023-06-22T14:59:33;23.20;99.90
61841;DHT22;47773;53.174;6.614;2023-06-22T15:01:59;23.10;99.90
61841;DHT22;47773;53.174;6.614;2023-06-22T15:04:25;23.10;99.90
61841;DHT22;47773;53.174;6.614;2023-06-22T15:06:52;23.00;99.90
61841;DHT22;47773;53.174;6.614;2023-06-22T15:09:18;22.90;99.90
61841;DHT22;47773;53.174;6.614;2023-06-22T15:11:44;22.90;99.90
61841;DHT22;47773;53.174;6.614;2023-06-22T15:14:09;22.80;99.90
61841;DHT22;47773;53.174;6.614;2023-06-22T15:16:35;22.80;99.90
61841;DHT22;47773;53.174;6.614;2023-06-22T15:19:01;22.70;99.90
61841;DHT22;47773;53.174;6.614;2023-06-22T15:21:27;22.60;99.90
61841;DHT22;47773;53.174;6.614;2023-06-22T15:23:53;22.50;99.90
61841;DHT22;47773;53.174;6.614;2023-06-22T15:26:18;22.50;99.90
61841;DHT22;47773;53.174;6.614;2023-06-22T15:28:44;22.40;99.90
61841;DHT22;47773;53.174;6.614;2023-06-22T15:31:10;22.40;99.90
61841;DHT22;47773;53.174;6.614;2023-06-22T15:33:35;22.40;99.90